createdAt,value
2023-02-24T00:00:38.714Z,81.15
2023-02-24T00:03:11.497Z,76.07
2023-02-24T00:05:42.963Z,72.68
2023-02-24T00:08:12.301Z,82.53
2023-02-24T00:10:42.345Z,77.68
2023-02-24T00:13:12.348Z,71.32
2023-02-24T00:15:42.018Z,73.85
2023-02-24T00:18:12.023Z,74.78
2023-02-24T00:20:39.533Z,70.32
2023-02-24T00:23:09.864Z,70.75
2023-02-24T00:25:39.661Z,70.88
2023-02-24T00:28:09.604Z,73.45
2023-02-24T00:30:39.474Z,68.32
2023-02-24T00:33:12.513Z,67.32
2023-02-24T00:35:42.554Z,70.85
2023-02-24T00:38:13.490Z,66.18
2023-02-24T00:45:10.646Z,76.13
2023-02-24T00:47:40.177Z,64.80
2023-02-24T00:50:11.900Z,62.85
2023-02-24T00:52:41.473Z,67.60
2023-02-24T00:55:15.303Z,63.22
2023-02-24T00:57:45.079Z,75.82
2023-02-24T01:00:16.694Z,69.22
2023-02-24T01:02:47.566Z,71.70
2023-02-24T01:05:17.627Z,75.70
2023-02-24T01:07:47.391Z,67.10
2023-02-24T01:10:18.448Z,76.55
2023-02-24T01:12:54.021Z,56.08
2023-02-24T01:15:23.452Z,58.58
2023-02-24T01:17:51.477Z,53.22
2023-02-24T01:20:20.191Z,47.00
2023-02-24T01:22:57.693Z,42.90
2023-02-24T01:25:26.915Z,44.65
2023-02-24T01:27:55.937Z,40.53
2023-02-24T01:30:23.480Z,40.78
2023-02-24T01:32:53.606Z,37.83
2023-02-24T01:35:25.681Z,50.15
2023-02-24T01:37:53.475Z,31.13
2023-02-24T01:40:26.295Z,32.15
2023-02-24T01:42:56.005Z,30.13
2023-02-24T01:45:30.160Z,20.10
2023-02-24T01:48:10.386Z,26.48
2023-02-24T01:50:39.362Z,30.00
2023-02-24T01:55:51.008Z,22.88
2023-02-24T01:58:28.736Z,17.25
2023-02-24T02:00:57.913Z,28.40
2023-02-24T02:03:35.255Z,34.45
2023-02-24T02:06:11.284Z,21.45
2023-02-24T02:08:45.252Z,20.95
2023-02-24T02:11:23.048Z,20.63
2023-02-24T02:13:55.256Z,33.72
2023-02-24T02:16:26.843Z,16.15
2023-02-24T02:19:33.512Z,17.75
2023-02-24T02:22:35.351Z,19.10
2023-02-24T02:26:05.939Z,24.02
2023-02-24T02:29:10.043Z,25.35
2023-02-24T02:32:35.955Z,27.75
2023-02-24T02:35:32.508Z,24.42
2023-02-24T02:38:27.740Z,25.00
2023-02-24T02:41:31.027Z,24.50
2023-02-24T02:44:21.638Z,17.48
2023-02-24T02:47:37.018Z,16.88
2023-02-24T02:50:55.000Z,23.60
2023-02-24T02:53:49.475Z,14.65
2023-02-24T02:56:34.633Z,16.27
2023-02-24T02:59:12.876Z,9.50
2023-02-24T03:04:23.295Z,16.27
2023-02-24T03:07:02.626Z,21.50
2023-02-24T03:09:45.762Z,18.27
2023-02-24T03:12:23.102Z,19.88
2023-02-24T03:15:04.702Z,19.38
2023-02-24T03:17:46.070Z,14.85
2023-02-24T03:21:07.796Z,14.07
2023-02-24T03:23:50.740Z,20.10
2023-02-24T03:26:53.241Z,19.33
2023-02-24T03:29:50.919Z,11.52
2023-02-24T03:32:55.010Z,14.20
2023-02-24T03:35:36.194Z,12.43
2023-02-24T03:38:06.917Z,10.18
2023-02-24T03:40:35.782Z,17.35
2023-02-24T03:43:19.665Z,16.95
2023-02-24T03:45:50.076Z,16.98
2023-02-24T03:48:21.940Z,10.35
2023-02-24T03:50:53.241Z,14.23
2023-02-24T03:53:48.625Z,18.55
2023-02-24T03:56:58.763Z,15.65
2023-02-24T03:59:57.748Z,15.07
2023-02-24T04:02:33.966Z,18.80
2023-02-24T04:05:21.934Z,9.68
2023-02-24T04:08:05.389Z,8.40
2023-02-24T04:11:23.029Z,21.77
2023-02-24T04:14:24.849Z,11.10
2023-02-24T04:17:30.600Z,20.27
2023-02-24T04:20:29.812Z,6.63
2023-02-24T04:23:15.484Z,15.98
2023-02-24T04:25:53.328Z,17.98
2023-02-24T04:28:27.459Z,13.73
2023-02-24T04:31:10.765Z,18.92
2023-02-24T04:33:41.080Z,18.25
2023-02-24T04:36:12.979Z,10.10
2023-02-24T04:38:43.201Z,12.00
2023-02-24T04:41:21.402Z,9.02
2023-02-24T04:43:52.153Z,13.80
2023-02-24T04:46:23.553Z,12.70
2023-02-24T04:48:53.701Z,9.40
2023-02-24T04:51:23.812Z,12.70
2023-02-24T04:53:55.471Z,12.25
2023-02-24T04:56:25.574Z,13.55
2023-02-24T04:58:56.077Z,13.20
2023-02-24T05:01:24.211Z,17.80
2023-02-24T05:03:52.654Z,13.23
2023-02-24T05:06:21.138Z,14.02
2023-02-24T05:08:48.410Z,9.45
2023-02-24T05:11:21.227Z,11.73
2023-02-24T05:13:48.483Z,9.88
2023-02-24T05:16:20.511Z,11.73
2023-02-24T05:18:50.588Z,12.02
2023-02-24T05:21:35.716Z,13.20
2023-02-24T05:24:08.572Z,16.25
2023-02-24T05:26:43.535Z,11.88
2023-02-24T05:29:12.583Z,13.98
2023-02-24T05:31:42.720Z,14.02
2023-02-24T05:34:17.238Z,4.20
2023-02-24T05:36:49.204Z,11.93
2023-02-24T05:39:19.840Z,11.95
2023-02-24T05:41:50.880Z,11.35
2023-02-24T05:44:22.814Z,7.60
2023-02-24T05:47:00.661Z,8.10
2023-02-24T05:49:34.475Z,8.45
2023-02-24T05:52:09.066Z,8.00
2023-02-24T05:54:45.242Z,7.38
2023-02-24T05:57:21.565Z,12.30
2023-02-24T05:59:51.153Z,11.98
2023-02-24T06:02:27.901Z,12.57
2023-02-24T06:04:57.112Z,5.40
2023-02-24T06:07:34.560Z,8.25
2023-02-24T06:10:10.042Z,13.60
2023-02-24T06:12:40.142Z,5.30
2023-02-24T06:15:10.718Z,6.38
2023-02-24T06:17:39.729Z,9.73
2023-02-24T06:20:15.615Z,7.13
2023-02-24T06:22:44.881Z,7.05
2023-02-24T06:25:14.632Z,7.57
2023-02-24T06:27:45.039Z,5.05
2023-02-24T06:30:15.254Z,9.80
2023-02-24T06:32:45.002Z,2.67
2023-02-24T06:35:15.996Z,9.50
2023-02-24T06:37:45.588Z,5.13
2023-02-24T06:40:18.288Z,5.63
2023-02-24T06:42:55.197Z,9.02
2023-02-24T06:45:26.343Z,5.28
2023-02-24T06:47:56.421Z,6.70
2023-02-24T06:50:23.878Z,7.32
2023-02-24T06:53:00.738Z,7.15
2023-02-24T06:55:30.744Z,9.30
2023-02-24T06:58:04.789Z,13.25
2023-02-24T07:00:41.667Z,11.52
2023-02-24T07:03:17.502Z,9.70
2023-02-24T07:05:54.444Z,7.88
2023-02-24T07:08:27.454Z,7.28
2023-02-24T07:10:59.956Z,8.38
2023-02-24T07:13:30.004Z,8.10
2023-02-24T07:16:11.847Z,7.22
2023-02-24T07:18:43.030Z,13.32
2023-02-24T07:21:13.103Z,6.88
2023-02-24T07:23:45.764Z,4.95
2023-02-24T07:26:23.212Z,7.65
2023-02-24T07:28:55.392Z,9.52
2023-02-24T07:31:26.433Z,12.27
2023-02-24T07:33:57.435Z,10.73
2023-02-24T07:36:30.385Z,8.25
2023-02-24T07:38:59.985Z,7.78
2023-02-24T07:41:31.362Z,11.60
2023-02-24T07:44:03.423Z,5.43
2023-02-24T07:46:33.559Z,7.47
2023-02-24T07:49:03.840Z,12.25
2023-02-24T07:51:33.640Z,8.23
2023-02-24T07:54:03.600Z,7.25
2023-02-24T07:56:34.208Z,7.00
2023-02-24T07:59:09.839Z,8.38
2023-02-24T08:01:49.723Z,7.40
2023-02-24T08:04:27.678Z,10.40
2023-02-24T08:07:02.936Z,10.52
2023-02-24T08:09:47.030Z,5.95
2023-02-24T08:12:22.889Z,11.82
2023-02-24T08:15:00.360Z,9.48
2023-02-24T08:17:30.486Z,8.25
2023-02-24T08:20:12.705Z,4.45
2023-02-24T08:22:52.254Z,9.48
2023-02-24T08:25:36.103Z,10.73
2023-02-24T08:28:15.155Z,8.98
2023-02-24T08:30:46.388Z,4.25
2023-02-24T08:33:23.370Z,7.25
2023-02-24T08:36:02.483Z,11.98
2023-02-24T08:38:44.705Z,12.02
2023-02-24T08:41:21.301Z,11.93
2023-02-24T08:43:51.643Z,7.53
2023-02-24T08:46:36.969Z,13.07
2023-02-24T08:49:10.970Z,8.10
2023-02-24T08:51:44.113Z,15.95
2023-02-24T08:54:32.073Z,7.45
2023-02-24T08:57:08.254Z,7.95
2023-02-24T08:59:38.121Z,5.25
2023-02-24T09:02:23.524Z,7.22
2023-02-24T09:05:04.771Z,8.57
2023-02-24T09:07:41.617Z,11.90
2023-02-24T09:10:19.201Z,14.15
2023-02-24T09:12:49.451Z,12.40
2023-02-24T09:15:20.683Z,10.10
2023-02-24T09:17:51.078Z,10.73
2023-02-24T09:20:27.649Z,6.93
2023-02-24T09:23:07.768Z,6.97
2023-02-24T09:25:49.482Z,8.00
2023-02-24T09:28:32.821Z,7.68
2023-02-24T09:31:04.989Z,12.35
2023-02-24T09:33:42.039Z,9.80
2023-02-24T09:36:30.232Z,8.23
2023-02-24T09:39:01.535Z,4.82
2023-02-24T09:41:54.674Z,6.82
2023-02-24T09:44:48.333Z,13.15
2023-02-24T09:47:57.952Z,3.25
2023-02-24T09:51:02.808Z,11.35
2023-02-24T09:53:41.944Z,7.15
2023-02-24T09:56:42.584Z,6.78
2023-02-24T09:59:51.075Z,4.43
2023-02-24T10:03:00.191Z,11.65
2023-02-24T10:06:15.038Z,5.68
2023-02-24T10:09:11.832Z,8.95
2023-02-24T10:11:55.653Z,7.93
2023-02-24T10:14:43.764Z,5.88
2023-02-24T10:17:40.352Z,8.47
2023-02-24T10:20:40.076Z,7.38
2023-02-24T10:23:34.425Z,5.65
2023-02-24T10:26:34.840Z,7.85
2023-02-24T10:29:33.434Z,3.67
2023-02-24T10:32:53.709Z,8.00
2023-02-24T10:35:26.192Z,4.40
2023-02-24T10:38:05.300Z,3.90
2023-02-24T10:40:56.801Z,2.33
2023-02-24T10:43:30.675Z,4.97
2023-02-24T10:46:17.539Z,5.45
2023-02-24T10:49:00.645Z,5.35
2023-02-24T10:51:42.027Z,7.07
2023-02-24T10:54:44.950Z,7.00
2023-02-24T10:57:36.707Z,5.00
2023-02-24T11:00:32.857Z,2.90
2023-02-24T11:03:22.065Z,7.78
2023-02-24T11:06:04.059Z,5.97
2023-02-24T11:08:39.958Z,5.90
2023-02-24T11:11:30.981Z,4.18
2023-02-24T11:14:23.935Z,10.05
2023-02-24T11:17:14.677Z,11.05
2023-02-24T11:19:55.281Z,4.35
2023-02-24T11:22:41.630Z,6.90
2023-02-24T11:25:42.009Z,5.72
2023-02-24T11:28:54.100Z,4.13
2023-02-24T11:31:42.815Z,5.18
2023-02-24T11:34:54.068Z,6.97
2023-02-24T11:38:09.716Z,6.20
2023-02-24T11:40:53.407Z,4.30
2023-02-24T11:43:33.525Z,3.60
2023-02-24T11:46:39.981Z,8.27
2023-02-24T11:49:47.174Z,5.75
2023-02-24T11:52:33.482Z,4.65
2023-02-24T11:55:42.616Z,8.05
2023-02-24T11:58:46.577Z,4.53
2023-02-24T12:02:00.296Z,6.72
2023-02-24T12:04:51.063Z,3.80
2023-02-24T12:07:48.712Z,10.85
2023-02-24T12:10:28.304Z,10.80
2023-02-24T12:13:51.382Z,5.13
2023-02-24T12:16:53.354Z,7.20
2023-02-24T12:19:44.399Z,8.02
2023-02-24T12:22:18.070Z,3.67
2023-02-24T12:24:52.789Z,6.68
2023-02-24T12:27:42.400Z,7.00
2023-02-24T12:31:12.461Z,7.78
2023-02-24T12:34:12.189Z,10.07
2023-02-24T12:37:39.521Z,7.30
2023-02-24T12:41:26.669Z,9.50
2023-02-24T12:45:17.973Z,3.70
2023-02-24T12:48:15.455Z,6.32
2023-02-24T12:51:09.529Z,8.55
2023-02-24T12:54:05.011Z,7.82
2023-02-24T12:57:13.534Z,8.07
2023-02-24T12:59:44.382Z,7.13
2023-02-24T13:02:40.473Z,5.50
2023-02-24T13:05:53.616Z,6.40
2023-02-24T13:09:02.469Z,8.02
2023-02-24T13:12:15.704Z,9.77
2023-02-24T13:14:50.350Z,7.10
2023-02-24T13:17:27.148Z,5.32
2023-02-24T13:19:57.609Z,7.93
2023-02-24T13:22:33.083Z,10.93
2023-02-24T13:25:09.172Z,8.65
2023-02-24T13:27:43.193Z,4.00
2023-02-24T13:30:15.864Z,8.65
2023-02-24T13:33:01.203Z,3.42
2023-02-24T13:35:37.352Z,6.97
2023-02-24T13:38:23.185Z,9.75
2023-02-24T13:40:53.412Z,6.72
2023-02-24T13:43:30.922Z,7.40
2023-02-24T13:46:18.549Z,4.57
2023-02-24T13:49:51.033Z,5.25
2023-02-24T13:53:09.383Z,6.22
2023-02-24T13:56:39.784Z,5.35
2023-02-24T13:59:36.980Z,9.52
2023-02-24T14:02:22.511Z,6.30
2023-02-24T14:05:00.341Z,6.80
2023-02-24T14:07:39.770Z,7.82
2023-02-24T14:10:25.294Z,5.97
2023-02-24T14:13:22.368Z,7.78
2023-02-24T14:15:53.515Z,4.78
2023-02-24T14:18:29.857Z,4.10
2023-02-24T14:20:59.991Z,4.43
2023-02-24T14:23:34.759Z,5.95
2023-02-24T14:26:18.702Z,5.57
2023-02-24T14:29:03.402Z,3.95
2023-02-24T14:31:35.065Z,6.45
2023-02-24T14:34:09.226Z,4.85
2023-02-24T14:36:46.296Z,6.82
2023-02-24T14:39:21.032Z,9.32
2023-02-24T14:42:11.014Z,5.70
2023-02-24T14:44:52.052Z,5.25
2023-02-24T14:47:29.054Z,3.03
2023-02-24T14:50:05.567Z,3.95
2023-02-24T14:53:05.575Z,3.92
2023-02-24T14:55:47.064Z,2.88
2023-02-24T14:58:57.715Z,4.47
2023-02-24T15:04:37.633Z,4.63
2023-02-24T15:07:28.992Z,2.38
2023-02-24T15:10:02.726Z,5.03
2023-02-24T15:12:57.436Z,2.50
2023-02-24T15:15:38.577Z,2.58
2023-02-24T15:18:29.713Z,4.50
2023-02-24T15:21:08.049Z,3.35
2023-02-24T15:23:39.062Z,4.32
2023-02-24T15:26:33.197Z,4.13
2023-02-24T15:29:26.798Z,6.68
2023-02-24T15:32:01.054Z,9.45
2023-02-24T15:34:36.944Z,3.70
2023-02-24T15:37:42.412Z,4.90
2023-02-24T15:40:25.940Z,4.20
2023-02-24T15:43:11.857Z,5.80
2023-02-24T15:45:42.053Z,5.90
2023-02-24T15:48:26.856Z,5.93
2023-02-24T15:51:06.037Z,6.45
2023-02-24T15:53:36.153Z,7.13
2023-02-24T15:56:06.239Z,7.78
2023-02-24T15:58:41.461Z,5.65
2023-02-24T16:06:21.678Z,6.28
2023-02-24T16:08:58.039Z,6.97
2023-02-24T16:11:39.854Z,5.72
2023-02-24T16:14:18.075Z,7.68
2023-02-24T16:16:48.337Z,6.10
2023-02-24T16:19:18.475Z,7.70
2023-02-24T16:21:48.552Z,4.75
2023-02-24T16:24:21.177Z,6.65
2023-02-24T16:26:51.640Z,6.97
2023-02-24T16:29:21.728Z,10.00
2023-02-24T16:31:52.022Z,5.18
2023-02-24T16:34:22.277Z,6.90
2023-02-24T16:36:52.328Z,6.55
2023-02-24T16:39:22.439Z,7.10
2023-02-24T16:41:52.505Z,11.95
2023-02-24T16:44:23.468Z,10.68
2023-02-24T16:46:53.536Z,8.30
2023-02-24T16:49:24.151Z,9.18
2023-02-24T16:51:57.215Z,9.15
2023-02-24T16:54:29.348Z,12.15
2023-02-24T16:56:59.604Z,10.43
2023-02-24T16:59:29.659Z,11.48
2023-02-24T17:01:59.787Z,10.00
2023-02-24T17:04:32.181Z,10.40
2023-02-24T17:07:02.397Z,12.00
2023-02-24T17:09:33.651Z,11.02
2023-02-24T17:12:04.168Z,12.35
2023-02-24T17:14:34.437Z,14.80
2023-02-24T17:17:04.714Z,12.80
2023-02-24T17:19:32.955Z,15.13
2023-02-24T17:22:01.351Z,14.45
2023-02-24T17:24:30.008Z,14.20
2023-02-24T17:26:59.960Z,16.45
2023-02-24T17:29:29.617Z,15.57
2023-02-24T17:31:59.744Z,17.23
2023-02-24T17:34:29.971Z,15.85
2023-02-24T17:37:00.018Z,16.77
2023-02-24T17:39:30.196Z,22.85
2023-02-24T17:42:00.325Z,20.13
2023-02-24T17:44:30.371Z,16.80
2023-02-24T17:47:00.359Z,18.65
2023-02-24T17:49:30.395Z,18.88
2023-02-24T17:52:00.405Z,19.33
2023-02-24T17:54:30.619Z,22.58
2023-02-24T17:57:00.729Z,20.92
2023-02-24T17:59:30.797Z,21.10
2023-02-24T18:02:02.396Z,22.60
2023-02-24T18:04:32.614Z,20.30
2023-02-24T18:07:02.734Z,22.30
2023-02-24T18:09:32.949Z,24.00
2023-02-24T18:12:05.081Z,19.85
2023-02-24T18:14:35.463Z,25.15
2023-02-24T18:17:05.516Z,25.17
2023-02-24T18:19:35.597Z,27.90
2023-02-24T18:22:05.922Z,22.95
2023-02-24T18:24:39.337Z,24.77
2023-02-24T18:27:09.504Z,24.92
2023-02-24T18:29:39.640Z,28.52
2023-02-24T18:32:10.794Z,26.83
2023-02-24T18:34:40.933Z,25.83
2023-02-24T18:37:11.091Z,25.20
2023-02-24T18:39:41.205Z,25.58
2023-02-24T18:42:15.141Z,22.50
2023-02-24T18:44:45.261Z,24.13
2023-02-24T18:47:13.652Z,31.38
2023-02-24T18:49:42.001Z,25.88
2023-02-24T18:52:11.846Z,26.30
2023-02-24T18:54:39.675Z,28.77
2023-02-24T18:57:07.464Z,26.25
2023-02-24T18:59:35.822Z,26.92
2023-02-24T19:02:04.261Z,23.63
2023-02-24T19:04:32.793Z,27.63
2023-02-24T19:07:01.416Z,26.58
2023-02-24T19:09:29.518Z,26.73
2023-02-24T19:11:59.136Z,27.42
2023-02-24T19:14:28.254Z,23.88
2023-02-24T19:16:55.686Z,28.90
2023-02-24T19:19:24.688Z,24.30
2023-02-24T19:21:52.741Z,25.35
2023-02-24T19:24:21.858Z,29.63
2023-02-24T19:26:52.653Z,26.33
2023-02-24T19:29:22.444Z,30.77
2023-02-24T19:31:54.324Z,24.85
2023-02-24T19:34:24.653Z,26.75
2023-02-24T19:36:54.429Z,31.30
2023-02-24T19:39:24.412Z,27.10
2023-02-24T19:41:54.937Z,27.10
2023-02-24T19:44:25.209Z,31.95
2023-02-24T19:46:55.238Z,27.50
2023-02-24T19:49:25.997Z,26.35
2023-02-24T19:51:59.300Z,39.65
2023-02-24T19:54:29.046Z,29.20
2023-02-24T19:57:00.353Z,27.45
2023-02-24T19:59:29.185Z,33.42
2023-02-24T20:01:59.317Z,32.97
2023-02-24T20:04:29.175Z,29.63
2023-02-24T20:06:59.315Z,33.63
2023-02-24T20:09:29.105Z,30.00
2023-02-24T20:12:00.772Z,35.40
2023-02-24T20:14:30.875Z,29.30
2023-02-24T20:17:00.835Z,30.95
2023-02-24T20:19:29.108Z,30.88
2023-02-24T20:21:57.483Z,33.30
2023-02-24T20:24:27.088Z,31.92
2023-02-24T20:26:54.419Z,33.78
2023-02-24T20:29:23.054Z,31.05
2023-02-24T20:31:51.469Z,32.08
2023-02-24T20:34:19.648Z,33.65
2023-02-24T20:36:48.211Z,32.88
2023-02-24T20:39:16.659Z,33.08
2023-02-24T20:41:45.624Z,35.78
2023-02-24T20:44:13.326Z,34.45
2023-02-24T20:46:41.920Z,34.58
2023-02-24T20:49:15.040Z,32.38
2023-02-24T20:51:45.203Z,44.05
2023-02-24T20:54:16.785Z,37.45
2023-02-24T20:56:46.829Z,36.53
2023-02-24T20:59:22.045Z,36.25
2023-02-24T21:01:51.761Z,41.05
2023-02-24T21:04:22.116Z,32.63
2023-02-24T21:06:52.100Z,37.88
2023-02-24T21:09:22.341Z,39.03
2023-02-24T21:11:51.922Z,34.75
2023-02-24T21:14:23.017Z,36.80
2023-02-24T21:16:53.037Z,36.80
2023-02-24T21:19:21.539Z,34.42
2023-02-24T21:21:49.958Z,33.72
2023-02-24T21:24:18.443Z,40.78
2023-02-24T21:26:47.545Z,44.92
2023-02-24T21:29:15.261Z,37.90
2023-02-24T21:31:44.055Z,35.72
2023-02-24T21:34:12.322Z,42.05
2023-02-24T21:36:40.495Z,35.45
2023-02-24T21:39:14.646Z,39.40
2023-02-24T21:41:45.375Z,36.65
2023-02-24T21:44:15.695Z,33.50
2023-02-24T21:46:45.828Z,35.97
2023-02-24T21:49:18.317Z,39.53
2023-02-24T21:51:51.624Z,37.95
2023-02-24T21:54:22.131Z,38.63
2023-02-24T21:56:52.594Z,39.05
2023-02-24T21:59:22.937Z,35.40
2023-02-24T22:01:54.313Z,42.97
2023-02-24T22:04:24.568Z,38.53
2023-02-24T22:06:54.747Z,38.42
2023-02-24T22:09:25.632Z,35.28
2023-02-24T22:11:53.303Z,36.30
2023-02-24T22:14:21.441Z,30.70
2023-02-24T22:16:51.551Z,36.97
2023-02-24T22:19:21.315Z,34.22
2023-02-24T22:21:51.409Z,35.22
2023-02-24T22:24:21.137Z,32.17
2023-02-24T22:26:51.160Z,29.58
2023-02-24T22:29:21.299Z,26.48
2023-02-24T22:31:51.290Z,26.52
2023-02-24T22:34:21.064Z,29.23
2023-02-24T22:36:50.870Z,26.70
2023-02-24T22:39:20.783Z,26.55
2023-02-24T22:41:52.287Z,26.95
2023-02-24T22:44:22.324Z,24.83
2023-02-24T22:46:52.376Z,29.08
2023-02-24T22:49:22.242Z,25.50
2023-02-24T22:51:51.917Z,25.05
2023-02-24T22:54:21.936Z,21.15
2023-02-24T22:56:55.998Z,22.27
2023-02-24T22:59:24.571Z,27.83
2023-02-24T23:01:51.782Z,22.17
2023-02-24T23:04:21.465Z,18.83
2023-02-24T23:06:53.588Z,32.55
2023-02-24T23:09:21.916Z,26.67
2023-02-24T23:11:51.870Z,21.67
2023-02-24T23:14:20.707Z,16.65
2023-02-24T23:16:55.608Z,15.52
2023-02-24T23:19:25.973Z,19.27
2023-02-24T23:21:56.505Z,16.05
2023-02-24T23:24:26.518Z,19.42
2023-02-24T23:26:57.732Z,14.25
2023-02-24T23:29:28.044Z,13.90
2023-02-24T23:31:59.235Z,19.42
2023-02-24T23:34:29.301Z,13.93
2023-02-24T23:36:59.283Z,12.63
2023-02-24T23:39:29.357Z,11.18
2023-02-24T23:41:59.277Z,13.43
2023-02-24T23:44:29.036Z,14.07
2023-02-24T23:46:59.782Z,13.07
2023-02-24T23:49:39.251Z,13.45
2023-02-24T23:52:13.826Z,12.23
2023-02-24T23:54:42.421Z,17.77
2023-02-24T23:57:11.548Z,12.15
2023-02-24T23:59:39.448Z,11.38
